sensor_id;sensor_type;location;lat;lon;timestamp;P1;durP1;ratioP1;P2;durP2;ratioP2
75152;SDS011;63734;45.218;36.708;2023-02-01T00:01:20;15.30;;;5.95;;
75152;SDS011;63734;45.218;36.708;2023-02-01T00:03:46;16.48;;;6.30;;
75152;SDS011;63734;45.218;36.708;2023-02-01T00:06:12;16.75;;;6.60;;
75152;SDS011;63734;45.218;36.708;2023-02-01T00:08:38;14.27;;;6.35;;
75152;SDS011;63734;45.218;36.708;2023-02-01T00:11:04;18.05;;;6.63;;
75152;SDS011;63734;45.218;36.708;2023-02-01T00:13:39;12.30;;;5.15;;
75152;SDS011;63734;45.218;36.708;2023-02-01T00:16:10;14.27;;;5.55;;
75152;SDS011;63734;45.218;36.708;2023-02-01T00:18:45;19.70;;;6.53;;
75152;SDS011;63734;45.218;36.708;2023-02-01T00:21:15;13.75;;;6.50;;
75152;SDS011;63734;45.218;36.708;2023-02-01T00:23:43;16.23;;;5.93;;
75152;SDS011;63734;45.218;36.708;2023-02-01T00:26:19;14.80;;;5.57;;
75152;SDS011;63734;45.218;36.708;2023-02-01T00:28:51;18.67;;;6.45;;
75152;SDS011;63734;45.218;36.708;2023-02-01T00:31:17;14.55;;;5.65;;
75152;SDS011;63734;45.218;36.708;2023-02-01T00:33:43;15.85;;;5.93;;
75152;SDS011;63734;45.218;36.708;2023-02-01T00:36:12;16.15;;;6.30;;
75152;SDS011;63734;45.218;36.708;2023-02-01T00:38:39;14.98;;;5.32;;
75152;SDS011;63734;45.218;36.708;2023-02-01T00:41:06;11.57;;;5.30;;
75152;SDS011;63734;45.218;36.708;2023-02-01T00:43:39;17.83;;;6.25;;
75152;SDS011;63734;45.218;36.708;2023-02-01T00:46:06;15.05;;;6.18;;
75152;SDS011;63734;45.218;36.708;2023-02-01T00:48:32;15.10;;;6.28;;
75152;SDS011;63734;45.218;36.708;2023-02-01T00:51:02;14.48;;;5.45;;
75152;SDS011;63734;45.218;36.708;2023-02-01T00:53:31;18.02;;;6.40;;
75152;SDS011;63734;45.218;36.708;2023-02-01T00:55:58;13.95;;;5.60;;
75152;SDS011;63734;45.218;36.708;2023-02-01T00:58:25;14.77;;;6.28;;
75152;SDS011;63734;45.218;36.708;2023-02-01T01:03:28;8.80;;;3.95;;
75152;SDS011;63734;45.218;36.708;2023-02-01T01:05:56;11.18;;;4.75;;
75152;SDS011;63734;45.218;36.708;2023-02-01T01:08:22;14.10;;;5.10;;
75152;SDS011;63734;45.218;36.708;2023-02-01T01:10:48;12.73;;;6.05;;
75152;SDS011;63734;45.218;36.708;2023-02-01T01:13:15;15.60;;;5.45;;
75152;SDS011;63734;45.218;36.708;2023-02-01T01:15:41;14.75;;;6.22;;
75152;SDS011;63734;45.218;36.708;2023-02-01T01:18:08;11.75;;;5.53;;
75152;SDS011;63734;45.218;36.708;2023-02-01T01:20:35;15.93;;;5.82;;
75152;SDS011;63734;45.218;36.708;2023-02-01T01:23:02;10.95;;;4.93;;
75152;SDS011;63734;45.218;36.708;2023-02-01T01:25:29;10.50;;;4.72;;
75152;SDS011;63734;45.218;36.708;2023-02-01T01:27:55;13.02;;;4.93;;
75152;SDS011;63734;45.218;36.708;2023-02-01T01:30:21;13.18;;;5.53;;
75152;SDS011;63734;45.218;36.708;2023-02-01T01:32:47;12.20;;;4.60;;
75152;SDS011;63734;45.218;36.708;2023-02-01T01:35:13;10.38;;;5.03;;
75152;SDS011;63734;45.218;36.708;2023-02-01T01:37:39;11.70;;;4.40;;
75152;SDS011;63734;45.218;36.708;2023-02-01T01:40:06;10.10;;;4.15;;
75152;SDS011;63734;45.218;36.708;2023-02-01T01:42:37;8.07;;;3.90;;
75152;SDS011;63734;45.218;36.708;2023-02-01T01:47:57;6.43;;;3.10;;
75152;SDS011;63734;45.218;36.708;2023-02-01T01:50:42;8.13;;;3.88;;
75152;SDS011;63734;45.218;36.708;2023-02-01T01:53:23;8.93;;;4.22;;
75152;SDS011;63734;45.218;36.708;2023-02-01T01:55:52;7.95;;;4.05;;
75152;SDS011;63734;45.218;36.708;2023-02-01T01:58:21;12.10;;;5.78;;
75152;SDS011;63734;45.218;36.708;2023-02-01T02:00:50;14.43;;;7.88;;
75152;SDS011;63734;45.218;36.708;2023-02-01T02:04:00;8.48;;;4.40;;
75152;SDS011;63734;45.218;36.708;2023-02-01T02:09:14;6.95;;;4.10;;
75152;SDS011;63734;45.218;36.708;2023-02-01T02:11:40;10.38;;;4.90;;
75152;SDS011;63734;45.218;36.708;2023-02-01T02:14:07;6.70;;;2.97;;
75152;SDS011;63734;45.218;36.708;2023-02-01T02:25:22;6.82;;;3.00;;
75152;SDS011;63734;45.218;36.708;2023-02-01T02:28:09;9.30;;;4.05;;
75152;SDS011;63734;45.218;36.708;2023-02-01T02:33:22;7.47;;;4.15;;
75152;SDS011;63734;45.218;36.708;2023-02-01T02:36:00;11.80;;;4.47;;
75152;SDS011;63734;45.218;36.708;2023-02-01T02:41:31;7.90;;;4.25;;
75152;SDS011;63734;45.218;36.708;2023-02-01T02:44:22;11.32;;;5.22;;
75152;SDS011;63734;45.218;36.708;2023-02-01T02:47:16;7.57;;;4.18;;
75152;SDS011;63734;45.218;36.708;2023-02-01T02:50:11;14.18;;;7.40;;
75152;SDS011;63734;45.218;36.708;2023-02-01T02:53:14;13.10;;;5.18;;
75152;SDS011;63734;45.218;36.708;2023-02-01T02:56:02;11.75;;;4.38;;
75152;SDS011;63734;45.218;36.708;2023-02-01T02:58:49;10.70;;;4.35;;
75152;SDS011;63734;45.218;36.708;2023-02-01T03:01:35;10.55;;;4.95;;
75152;SDS011;63734;45.218;36.708;2023-02-01T03:04:22;9.00;;;3.60;;
75152;SDS011;63734;45.218;36.708;2023-02-01T03:06:49;8.75;;;4.10;;
75152;SDS011;63734;45.218;36.708;2023-02-01T03:09:34;12.45;;;4.65;;
75152;SDS011;63734;45.218;36.708;2023-02-01T03:12:05;5.35;;;2.75;;
75152;SDS011;63734;45.218;36.708;2023-02-01T03:14:57;11.27;;;3.92;;
75152;SDS011;63734;45.218;36.708;2023-02-01T03:17:33;7.95;;;3.63;;
75152;SDS011;63734;45.218;36.708;2023-02-01T03:20:05;6.68;;;3.28;;
75152;SDS011;63734;45.218;36.708;2023-02-01T03:22:32;11.68;;;5.00;;
75152;SDS011;63734;45.218;36.708;2023-02-01T03:25:07;9.75;;;3.90;;
75152;SDS011;63734;45.218;36.708;2023-02-01T03:27:42;7.10;;;3.25;;
75152;SDS011;63734;45.218;36.708;2023-02-01T03:30:24;13.15;;;5.22;;
75152;SDS011;63734;45.218;36.708;2023-02-01T03:32:54;9.80;;;4.20;;
75152;SDS011;63734;45.218;36.708;2023-02-01T03:35:39;10.07;;;3.97;;
75152;SDS011;63734;45.218;36.708;2023-02-01T03:44:12;14.50;;;5.28;;
75152;SDS011;63734;45.218;36.708;2023-02-01T03:46:38;9.02;;;3.70;;
75152;SDS011;63734;45.218;36.708;2023-02-01T03:49:13;11.02;;;4.15;;
75152;SDS011;63734;45.218;36.708;2023-02-01T03:51:53;11.93;;;5.55;;
75152;SDS011;63734;45.218;36.708;2023-02-01T03:54:22;7.95;;;3.53;;
75152;SDS011;63734;45.218;36.708;2023-02-01T03:56:49;4.50;;;2.63;;
75152;SDS011;63734;45.218;36.708;2023-02-01T03:59:17;10.15;;;5.00;;
75152;SDS011;63734;45.218;36.708;2023-02-01T04:01:43;5.55;;;2.92;;
75152;SDS011;63734;45.218;36.708;2023-02-01T04:04:09;12.20;;;4.85;;
75152;SDS011;63734;45.218;36.708;2023-02-01T04:06:37;10.50;;;4.45;;
75152;SDS011;63734;45.218;36.708;2023-02-01T04:09:04;15.25;;;6.20;;
75152;SDS011;63734;45.218;36.708;2023-02-01T04:11:30;10.32;;;3.85;;
75152;SDS011;63734;45.218;36.708;2023-02-01T04:13:56;6.35;;;3.28;;
75152;SDS011;63734;45.218;36.708;2023-02-01T04:16:22;2.67;;;2.05;;
75152;SDS011;63734;45.218;36.708;2023-02-01T04:18:48;7.65;;;4.50;;
75152;SDS011;63734;45.218;36.708;2023-02-01T04:21:14;9.88;;;4.20;;
75152;SDS011;63734;45.218;36.708;2023-02-01T04:23:40;8.27;;;4.55;;
75152;SDS011;63734;45.218;36.708;2023-02-01T04:26:06;8.10;;;4.57;;
75152;SDS011;63734;45.218;36.708;2023-02-01T04:28:32;6.40;;;2.80;;
75152;SDS011;63734;45.218;36.708;2023-02-01T04:30:58;13.02;;;4.47;;
75152;SDS011;63734;45.218;36.708;2023-02-01T04:33:24;14.15;;;5.63;;
75152;SDS011;63734;45.218;36.708;2023-02-01T04:35:50;8.27;;;4.43;;
75152;SDS011;63734;45.218;36.708;2023-02-01T04:38:16;14.00;;;5.88;;
75152;SDS011;63734;45.218;36.708;2023-02-01T04:40:42;7.82;;;4.47;;
75152;SDS011;63734;45.218;36.708;2023-02-01T04:43:08;10.40;;;4.10;;
75152;SDS011;63734;45.218;36.708;2023-02-01T04:45:34;17.23;;;5.78;;
75152;SDS011;63734;45.218;36.708;2023-02-01T04:48:00;12.48;;;6.03;;
75152;SDS011;63734;45.218;36.708;2023-02-01T04:50:26;16.70;;;6.70;;
75152;SDS011;63734;45.218;36.708;2023-02-01T04:52:52;13.35;;;5.15;;
75152;SDS011;63734;45.218;36.708;2023-02-01T04:55:18;8.13;;;3.40;;
75152;SDS011;63734;45.218;36.708;2023-02-01T04:57:44;18.98;;;7.50;;
75152;SDS011;63734;45.218;36.708;2023-02-01T05:00:10;14.50;;;5.60;;
75152;SDS011;63734;45.218;36.708;2023-02-01T05:02:38;14.65;;;6.00;;
75152;SDS011;63734;45.218;36.708;2023-02-01T05:05:04;9.55;;;4.30;;
75152;SDS011;63734;45.218;36.708;2023-02-01T05:07:30;15.57;;;6.75;;
75152;SDS011;63734;45.218;36.708;2023-02-01T05:09:56;25.05;;;10.75;;
75152;SDS011;63734;45.218;36.708;2023-02-01T05:12:22;21.50;;;9.82;;
75152;SDS011;63734;45.218;36.708;2023-02-01T05:15:06;18.83;;;8.00;;
75152;SDS011;63734;45.218;36.708;2023-02-01T05:17:32;16.60;;;7.43;;
75152;SDS011;63734;45.218;36.708;2023-02-01T05:19:58;16.67;;;8.15;;
75152;SDS011;63734;45.218;36.708;2023-02-01T05:22:24;17.38;;;7.65;;
75152;SDS011;63734;45.218;36.708;2023-02-01T05:24:50;12.75;;;5.35;;
75152;SDS011;63734;45.218;36.708;2023-02-01T05:27:16;20.10;;;8.15;;
75152;SDS011;63734;45.218;36.708;2023-02-01T05:29:42;27.00;;;9.63;;
75152;SDS011;63734;45.218;36.708;2023-02-01T05:32:09;19.00;;;8.30;;
75152;SDS011;63734;45.218;36.708;2023-02-01T05:34:36;19.00;;;8.50;;
75152;SDS011;63734;45.218;36.708;2023-02-01T05:37:02;21.00;;;9.52;;
75152;SDS011;63734;45.218;36.708;2023-02-01T05:39:28;20.17;;;8.60;;
75152;SDS011;63734;45.218;36.708;2023-02-01T05:41:54;18.73;;;8.38;;
75152;SDS011;63734;45.218;36.708;2023-02-01T05:44:20;17.92;;;7.65;;
75152;SDS011;63734;45.218;36.708;2023-02-01T05:46:46;17.92;;;7.40;;
75152;SDS011;63734;45.218;36.708;2023-02-01T05:49:11;11.57;;;4.38;;
75152;SDS011;63734;45.218;36.708;2023-02-01T05:51:37;16.55;;;7.65;;
75152;SDS011;63734;45.218;36.708;2023-02-01T05:54:03;13.23;;;6.43;;
75152;SDS011;63734;45.218;36.708;2023-02-01T05:56:29;13.95;;;7.07;;
75152;SDS011;63734;45.218;36.708;2023-02-01T05:58:55;19.65;;;7.45;;
75152;SDS011;63734;45.218;36.708;2023-02-01T06:01:21;17.50;;;6.97;;
75152;SDS011;63734;45.218;36.708;2023-02-01T06:03:47;19.88;;;8.57;;
75152;SDS011;63734;45.218;36.708;2023-02-01T06:06:13;16.35;;;7.63;;
75152;SDS011;63734;45.218;36.708;2023-02-01T06:08:39;14.98;;;6.97;;
75152;SDS011;63734;45.218;36.708;2023-02-01T06:11:05;15.05;;;7.50;;
75152;SDS011;63734;45.218;36.708;2023-02-01T06:13:31;19.60;;;8.35;;
75152;SDS011;63734;45.218;36.708;2023-02-01T06:15:58;14.57;;;6.55;;
75152;SDS011;63734;45.218;36.708;2023-02-01T06:18:24;8.18;;;4.47;;
75152;SDS011;63734;45.218;36.708;2023-02-01T06:20:56;9.65;;;4.65;;
75152;SDS011;63734;45.218;36.708;2023-02-01T06:23:25;6.55;;;3.60;;
75152;SDS011;63734;45.218;36.708;2023-02-01T06:26:13;10.57;;;5.10;;
75152;SDS011;63734;45.218;36.708;2023-02-01T06:28:38;9.13;;;3.88;;
75152;SDS011;63734;45.218;36.708;2023-02-01T06:31:05;7.65;;;4.00;;
75152;SDS011;63734;45.218;36.708;2023-02-01T06:33:32;7.25;;;3.55;;
75152;SDS011;63734;45.218;36.708;2023-02-01T06:36:00;8.90;;;3.67;;
75152;SDS011;63734;45.218;36.708;2023-02-01T06:38:28;7.32;;;3.45;;
75152;SDS011;63734;45.218;36.708;2023-02-01T06:40:55;13.10;;;5.18;;
75152;SDS011;63734;45.218;36.708;2023-02-01T06:43:22;10.40;;;4.63;;
75152;SDS011;63734;45.218;36.708;2023-02-01T06:45:50;6.35;;;3.85;;
75152;SDS011;63734;45.218;36.708;2023-02-01T06:48:17;10.30;;;4.75;;
75152;SDS011;63734;45.218;36.708;2023-02-01T06:50:43;18.25;;;6.47;;
75152;SDS011;63734;45.218;36.708;2023-02-01T06:53:09;12.75;;;5.65;;
75152;SDS011;63734;45.218;36.708;2023-02-01T06:55:35;16.08;;;7.22;;
75152;SDS011;63734;45.218;36.708;2023-02-01T06:58:01;19.00;;;7.32;;
75152;SDS011;63734;45.218;36.708;2023-02-01T07:00:28;16.52;;;6.50;;
75152;SDS011;63734;45.218;36.708;2023-02-01T07:02:54;17.17;;;6.70;;
75152;SDS011;63734;45.218;36.708;2023-02-01T07:05:22;9.32;;;5.07;;
75152;SDS011;63734;45.218;36.708;2023-02-01T07:07:48;9.77;;;4.32;;
75152;SDS011;63734;45.218;36.708;2023-02-01T07:10:14;7.30;;;3.63;;
75152;SDS011;63734;45.218;36.708;2023-02-01T07:12:40;9.27;;;4.97;;
75152;SDS011;63734;45.218;36.708;2023-02-01T07:15:06;12.55;;;5.85;;
75152;SDS011;63734;45.218;36.708;2023-02-01T07:17:33;9.85;;;4.47;;
75152;SDS011;63734;45.218;36.708;2023-02-01T07:19:59;8.95;;;3.97;;
75152;SDS011;63734;45.218;36.708;2023-02-01T07:22:27;12.60;;;5.47;;
75152;SDS011;63734;45.218;36.708;2023-02-01T07:24:53;23.65;;;7.45;;
75152;SDS011;63734;45.218;36.708;2023-02-01T07:27:19;14.07;;;7.03;;
75152;SDS011;63734;45.218;36.708;2023-02-01T07:29:45;19.75;;;8.23;;
75152;SDS011;63734;45.218;36.708;2023-02-01T07:32:11;21.85;;;9.65;;
75152;SDS011;63734;45.218;36.708;2023-02-01T07:34:37;19.48;;;8.25;;
75152;SDS011;63734;45.218;36.708;2023-02-01T07:37:03;16.30;;;8.57;;
75152;SDS011;63734;45.218;36.708;2023-02-01T07:39:29;11.93;;;6.97;;
75152;SDS011;63734;45.218;36.708;2023-02-01T07:41:57;18.13;;;7.80;;
75152;SDS011;63734;45.218;36.708;2023-02-01T07:44:23;11.90;;;6.10;;
75152;SDS011;63734;45.218;36.708;2023-02-01T07:46:49;18.38;;;7.88;;
75152;SDS011;63734;45.218;36.708;2023-02-01T07:49:15;12.30;;;6.03;;
75152;SDS011;63734;45.218;36.708;2023-02-01T07:51:43;12.98;;;5.80;;
75152;SDS011;63734;45.218;36.708;2023-02-01T07:54:09;13.73;;;5.78;;
75152;SDS011;63734;45.218;36.708;2023-02-01T07:56:35;8.43;;;4.40;;
75152;SDS011;63734;45.218;36.708;2023-02-01T07:59:01;17.95;;;5.72;;
75152;SDS011;63734;45.218;36.708;2023-02-01T08:01:28;15.68;;;8.00;;
75152;SDS011;63734;45.218;36.708;2023-02-01T08:03:55;15.95;;;6.50;;
75152;SDS011;63734;45.218;36.708;2023-02-01T08:06:26;16.10;;;6.78;;
75152;SDS011;63734;45.218;36.708;2023-02-01T08:08:53;13.38;;;6.38;;
75152;SDS011;63734;45.218;36.708;2023-02-01T08:11:20;11.85;;;5.82;;
75152;SDS011;63734;45.218;36.708;2023-02-01T08:13:47;11.60;;;5.78;;
75152;SDS011;63734;45.218;36.708;2023-02-01T08:16:14;15.20;;;6.40;;
75152;SDS011;63734;45.218;36.708;2023-02-01T08:18:41;14.90;;;7.45;;
75152;SDS011;63734;45.218;36.708;2023-02-01T08:21:09;13.38;;;6.68;;
75152;SDS011;63734;45.218;36.708;2023-02-01T08:23:36;14.30;;;6.88;;
75152;SDS011;63734;45.218;36.708;2023-02-01T08:26:04;13.38;;;6.10;;
75152;SDS011;63734;45.218;36.708;2023-02-01T08:28:33;9.10;;;5.10;;
75152;SDS011;63734;45.218;36.708;2023-02-01T08:31:02;11.35;;;6.68;;
75152;SDS011;63734;45.218;36.708;2023-02-01T08:33:30;13.60;;;7.78;;
75152;SDS011;63734;45.218;36.708;2023-02-01T08:35:56;15.70;;;7.05;;
75152;SDS011;63734;45.218;36.708;2023-02-01T08:38:22;14.75;;;7.35;;
75152;SDS011;63734;45.218;36.708;2023-02-01T08:40:47;17.77;;;7.93;;
75152;SDS011;63734;45.218;36.708;2023-02-01T08:43:13;11.82;;;5.18;;
75152;SDS011;63734;45.218;36.708;2023-02-01T08:45:39;15.20;;;8.63;;
75152;SDS011;63734;45.218;36.708;2023-02-01T08:48:06;17.92;;;7.65;;
75152;SDS011;63734;45.218;36.708;2023-02-01T08:50:32;15.13;;;8.15;;
75152;SDS011;63734;45.218;36.708;2023-02-01T08:52:57;12.75;;;6.55;;
75152;SDS011;63734;45.218;36.708;2023-02-01T08:55:23;13.27;;;6.15;;
75152;SDS011;63734;45.218;36.708;2023-02-01T08:57:49;15.63;;;7.68;;
75152;SDS011;63734;45.218;36.708;2023-02-01T09:00:16;13.65;;;6.05;;
75152;SDS011;63734;45.218;36.708;2023-02-01T09:02:43;13.35;;;5.88;;
75152;SDS011;63734;45.218;36.708;2023-02-01T09:05:09;11.43;;;5.25;;
75152;SDS011;63734;45.218;36.708;2023-02-01T09:07:36;9.15;;;4.68;;
75152;SDS011;63734;45.218;36.708;2023-02-01T09:10:03;12.40;;;6.03;;
75152;SDS011;63734;45.218;36.708;2023-02-01T09:12:30;18.05;;;7.57;;
75152;SDS011;63734;45.218;36.708;2023-02-01T09:14:57;11.43;;;5.75;;
75152;SDS011;63734;45.218;36.708;2023-02-01T09:17:28;8.60;;;4.55;;
75152;SDS011;63734;45.218;36.708;2023-02-01T09:19:55;9.90;;;5.32;;
75152;SDS011;63734;45.218;36.708;2023-02-01T09:22:21;13.18;;;7.40;;
75152;SDS011;63734;45.218;36.708;2023-02-01T09:24:47;12.65;;;5.57;;
75152;SDS011;63734;45.218;36.708;2023-02-01T09:27:13;14.90;;;5.43;;
75152;SDS011;63734;45.218;36.708;2023-02-01T09:29:39;10.35;;;5.60;;
75152;SDS011;63734;45.218;36.708;2023-02-01T09:32:05;13.50;;;6.68;;
75152;SDS011;63734;45.218;36.708;2023-02-01T09:34:32;13.93;;;7.22;;
75152;SDS011;63734;45.218;36.708;2023-02-01T09:36:59;9.10;;;4.93;;
75152;SDS011;63734;45.218;36.708;2023-02-01T09:39:26;12.73;;;4.82;;
75152;SDS011;63734;45.218;36.708;2023-02-01T09:41:55;11.82;;;4.95;;
75152;SDS011;63734;45.218;36.708;2023-02-01T09:47:26;13.05;;;4.95;;
75152;SDS011;63734;45.218;36.708;2023-02-01T09:52:43;11.30;;;4.95;;
75152;SDS011;63734;45.218;36.708;2023-02-01T09:55:16;18.58;;;5.13;;
75152;SDS011;63734;45.218;36.708;2023-02-01T09:57:59;13.48;;;6.45;;
75152;SDS011;63734;45.218;36.708;2023-02-01T10:00:53;15.90;;;7.20;;
75152;SDS011;63734;45.218;36.708;2023-02-01T10:03:27;12.25;;;5.75;;
75152;SDS011;63734;45.218;36.708;2023-02-01T10:06:01;11.48;;;5.30;;
75152;SDS011;63734;45.218;36.708;2023-02-01T10:11:36;7.45;;;4.07;;
75152;SDS011;63734;45.218;36.708;2023-02-01T10:19:55;5.75;;;4.15;;
75152;SDS011;63734;45.218;36.708;2023-02-01T10:22:42;20.70;;;7.65;;
75152;SDS011;63734;45.218;36.708;2023-02-01T10:27:50;14.10;;;6.78;;
75152;SDS011;63734;45.218;36.708;2023-02-01T10:32:52;16.03;;;7.50;;
75152;SDS011;63734;45.218;36.708;2023-02-01T10:35:26;14.35;;;6.88;;
75152;SDS011;63734;45.218;36.708;2023-02-01T10:37:59;15.45;;;5.15;;
75152;SDS011;63734;45.218;36.708;2023-02-01T10:40:29;21.08;;;8.88;;
75152;SDS011;63734;45.218;36.708;2023-02-01T10:43:00;22.30;;;9.02;;
75152;SDS011;63734;45.218;36.708;2023-02-01T10:45:28;21.42;;;9.07;;
75152;SDS011;63734;45.218;36.708;2023-02-01T10:47:56;17.48;;;7.57;;
75152;SDS011;63734;45.218;36.708;2023-02-01T10:50:31;24.75;;;9.18;;
75152;SDS011;63734;45.218;36.708;2023-02-01T10:53:11;22.40;;;9.10;;
75152;SDS011;63734;45.218;36.708;2023-02-01T10:58:18;16.75;;;7.97;;
75152;SDS011;63734;45.218;36.708;2023-02-01T11:00:52;16.42;;;7.10;;
75152;SDS011;63734;45.218;36.708;2023-02-01T11:08:55;20.13;;;8.85;;
75152;SDS011;63734;45.218;36.708;2023-02-01T11:11:26;18.50;;;7.35;;
75152;SDS011;63734;45.218;36.708;2023-02-01T11:13:54;17.63;;;8.15;;
75152;SDS011;63734;45.218;36.708;2023-02-01T11:16:23;15.57;;;7.05;;
75152;SDS011;63734;45.218;36.708;2023-02-01T11:18:55;23.40;;;8.82;;
75152;SDS011;63734;45.218;36.708;2023-02-01T11:21:23;18.65;;;8.63;;
75152;SDS011;63734;45.218;36.708;2023-02-01T11:23:49;16.55;;;7.35;;
75152;SDS011;63734;45.218;36.708;2023-02-01T11:26:23;8.55;;;4.57;;
75152;SDS011;63734;45.218;36.708;2023-02-01T11:28:57;13.98;;;5.78;;
75152;SDS011;63734;45.218;36.708;2023-02-01T11:31:29;16.13;;;7.05;;
75152;SDS011;63734;45.218;36.708;2023-02-01T11:33:59;15.50;;;6.32;;
75152;SDS011;63734;45.218;36.708;2023-02-01T11:36:31;14.10;;;6.78;;
75152;SDS011;63734;45.218;36.708;2023-02-01T11:41:44;12.20;;;5.68;;
75152;SDS011;63734;45.218;36.708;2023-02-01T11:44:22;11.23;;;5.05;;
75152;SDS011;63734;45.218;36.708;2023-02-01T11:47:25;10.98;;;5.55;;
75152;SDS011;63734;45.218;36.708;2023-02-01T11:50:05;9.13;;;4.65;;
75152;SDS011;63734;45.218;36.708;2023-02-01T12:03:45;9.55;;;3.28;;
75152;SDS011;63734;45.218;36.708;2023-02-01T12:11:41;12.70;;;5.85;;
75152;SDS011;63734;45.218;36.708;2023-02-01T12:14:47;15.57;;;6.82;;
75152;SDS011;63734;45.218;36.708;2023-02-01T12:17:56;13.52;;;6.47;;
75152;SDS011;63734;45.218;36.708;2023-02-01T12:26:44;13.73;;;5.55;;
75152;SDS011;63734;45.218;36.708;2023-02-01T12:32:04;8.55;;;4.75;;
75152;SDS011;63734;45.218;36.708;2023-02-01T12:40:07;11.57;;;5.72;;
75152;SDS011;63734;45.218;36.708;2023-02-01T12:42:41;6.35;;;3.75;;
75152;SDS011;63734;45.218;36.708;2023-02-01T12:50:53;14.13;;;6.63;;
75152;SDS011;63734;45.218;36.708;2023-02-01T12:53:25;11.20;;;4.97;;
75152;SDS011;63734;45.218;36.708;2023-02-01T12:56:06;10.30;;;5.10;;
75152;SDS011;63734;45.218;36.708;2023-02-01T12:58:40;10.45;;;5.63;;
75152;SDS011;63734;45.218;36.708;2023-02-01T13:04:13;8.80;;;4.43;;
75152;SDS011;63734;45.218;36.708;2023-02-01T13:06:49;11.40;;;6.28;;
75152;SDS011;63734;45.218;36.708;2023-02-01T13:12:01;9.13;;;5.15;;
75152;SDS011;63734;45.218;36.708;2023-02-01T13:14:39;9.00;;;5.22;;
75152;SDS011;63734;45.218;36.708;2023-02-01T13:22:22;10.32;;;6.15;;
75152;SDS011;63734;45.218;36.708;2023-02-01T13:27:22;8.25;;;5.15;;
75152;SDS011;63734;45.218;36.708;2023-02-01T13:30:02;8.02;;;4.88;;
75152;SDS011;63734;45.218;36.708;2023-02-01T13:32:48;9.07;;;4.60;;
75152;SDS011;63734;45.218;36.708;2023-02-01T13:35:37;9.77;;;5.30;;
75152;SDS011;63734;45.218;36.708;2023-02-01T13:38:44;9.55;;;3.35;;
75152;SDS011;63734;45.218;36.708;2023-02-01T13:41:32;8.50;;;4.35;;
75152;SDS011;63734;45.218;36.708;2023-02-01T13:44:28;9.18;;;5.03;;
75152;SDS011;63734;45.218;36.708;2023-02-01T13:46:56;9.90;;;5.43;;
75152;SDS011;63734;45.218;36.708;2023-02-01T13:49:28;8.90;;;4.85;;
75152;SDS011;63734;45.218;36.708;2023-02-01T13:52:03;10.05;;;4.13;;
75152;SDS011;63734;45.218;36.708;2023-02-01T13:54:31;6.50;;;4.35;;
75152;SDS011;63734;45.218;36.708;2023-02-01T13:57:34;12.35;;;6.78;;
75152;SDS011;63734;45.218;36.708;2023-02-01T14:23:44;9.13;;;4.65;;
75152;SDS011;63734;45.218;36.708;2023-02-01T14:28:56;8.70;;;4.25;;
75152;SDS011;63734;45.218;36.708;2023-02-01T14:31:30;7.68;;;4.65;;
75152;SDS011;63734;45.218;36.708;2023-02-01T14:34:10;17.02;;;6.75;;
75152;SDS011;63734;45.218;36.708;2023-02-01T14:36:44;12.30;;;6.22;;
75152;SDS011;63734;45.218;36.708;2023-02-01T14:39:24;19.67;;;8.73;;
75152;SDS011;63734;45.218;36.708;2023-02-01T14:42:05;15.77;;;9.00;;
75152;SDS011;63734;45.218;36.708;2023-02-01T14:44:56;15.18;;;7.47;;
75152;SDS011;63734;45.218;36.708;2023-02-01T14:47:42;21.85;;;8.98;;
75152;SDS011;63734;45.218;36.708;2023-02-01T14:55:43;14.50;;;7.90;;
75152;SDS011;63734;45.218;36.708;2023-02-01T14:58:27;15.50;;;7.10;;
75152;SDS011;63734;45.218;36.708;2023-02-01T15:01:22;16.95;;;7.05;;
75152;SDS011;63734;45.218;36.708;2023-02-01T15:04:16;17.23;;;7.13;;
75152;SDS011;63734;45.218;36.708;2023-02-01T15:06:50;13.90;;;7.88;;
75152;SDS011;63734;45.218;36.708;2023-02-01T15:09:29;14.80;;;7.35;;
75152;SDS011;63734;45.218;36.708;2023-02-01T15:17:56;20.77;;;8.02;;
75152;SDS011;63734;45.218;36.708;2023-02-01T15:20:28;19.45;;;9.27;;
75152;SDS011;63734;45.218;36.708;2023-02-01T15:22:59;14.88;;;6.28;;
75152;SDS011;63734;45.218;36.708;2023-02-01T15:25:27;10.88;;;5.85;;
75152;SDS011;63734;45.218;36.708;2023-02-01T15:27:58;18.20;;;9.18;;
75152;SDS011;63734;45.218;36.708;2023-02-01T15:30:26;20.58;;;8.02;;
75152;SDS011;63734;45.218;36.708;2023-02-01T15:33:04;11.63;;;6.22;;
75152;SDS011;63734;45.218;36.708;2023-02-01T15:35:40;15.95;;;6.50;;
75152;SDS011;63734;45.218;36.708;2023-02-01T15:40:58;13.23;;;5.63;;
75152;SDS011;63734;45.218;36.708;2023-02-01T15:43:34;13.13;;;6.32;;
75152;SDS011;63734;45.218;36.708;2023-02-01T15:46:12;20.48;;;7.95;;
75152;SDS011;63734;45.218;36.708;2023-02-01T15:48:45;15.68;;;8.02;;
75152;SDS011;63734;45.218;36.708;2023-02-01T15:51:16;24.33;;;10.07;;
75152;SDS011;63734;45.218;36.708;2023-02-01T15:53:46;19.30;;;8.52;;
75152;SDS011;63734;45.218;36.708;2023-02-01T15:56:15;24.70;;;11.38;;
75152;SDS011;63734;45.218;36.708;2023-02-01T15:58:50;10.10;;;5.07;;
75152;SDS011;63734;45.218;36.708;2023-02-01T16:01:20;9.10;;;4.35;;
75152;SDS011;63734;45.218;36.708;2023-02-01T16:03:47;20.33;;;8.60;;
75152;SDS011;63734;45.218;36.708;2023-02-01T16:11:25;12.65;;;4.80;;
75152;SDS011;63734;45.218;36.708;2023-02-01T16:13:53;23.85;;;9.85;;
75152;SDS011;63734;45.218;36.708;2023-02-01T16:16:19;13.27;;;5.55;;
75152;SDS011;63734;45.218;36.708;2023-02-01T16:18:45;18.30;;;6.65;;
75152;SDS011;63734;45.218;36.708;2023-02-01T16:21:12;19.40;;;8.75;;
75152;SDS011;63734;45.218;36.708;2023-02-01T16:23:38;17.35;;;7.60;;
75152;SDS011;63734;45.218;36.708;2023-02-01T16:26:04;26.85;;;9.90;;
75152;SDS011;63734;45.218;36.708;2023-02-01T16:28:32;13.00;;;6.65;;
75152;SDS011;63734;45.218;36.708;2023-02-01T16:30:58;15.77;;;8.52;;
75152;SDS011;63734;45.218;36.708;2023-02-01T16:33:25;18.10;;;7.88;;
75152;SDS011;63734;45.218;36.708;2023-02-01T16:35:51;18.25;;;7.93;;
75152;SDS011;63734;45.218;36.708;2023-02-01T16:38:22;16.20;;;7.70;;
75152;SDS011;63734;45.218;36.708;2023-02-01T16:40:49;28.95;;;11.23;;
75152;SDS011;63734;45.218;36.708;2023-02-01T16:43:19;20.25;;;8.90;;
75152;SDS011;63734;45.218;36.708;2023-02-01T16:45:50;23.70;;;10.85;;
75152;SDS011;63734;45.218;36.708;2023-02-01T16:48:26;27.48;;;11.55;;
75152;SDS011;63734;45.218;36.708;2023-02-01T16:50:58;27.65;;;12.57;;
75152;SDS011;63734;45.218;36.708;2023-02-01T16:53:27;28.55;;;11.88;;
75152;SDS011;63734;45.218;36.708;2023-02-01T16:55:54;32.47;;;12.45;;
75152;SDS011;63734;45.218;36.708;2023-02-01T16:58:22;32.40;;;12.27;;
75152;SDS011;63734;45.218;36.708;2023-02-01T17:00:50;32.38;;;11.55;;
75152;SDS011;63734;45.218;36.708;2023-02-01T17:03:17;34.05;;;12.38;;
75152;SDS011;63734;45.218;36.708;2023-02-01T17:05:48;30.25;;;12.07;;
75152;SDS011;63734;45.218;36.708;2023-02-01T17:08:18;29.63;;;11.50;;
75152;SDS011;63734;45.218;36.708;2023-02-01T17:10:53;32.42;;;11.50;;
75152;SDS011;63734;45.218;36.708;2023-02-01T17:13:20;33.13;;;12.88;;
75152;SDS011;63734;45.218;36.708;2023-02-01T17:15:54;34.72;;;12.85;;
75152;SDS011;63734;45.218;36.708;2023-02-01T17:18:37;32.60;;;11.98;;
75152;SDS011;63734;45.218;36.708;2023-02-01T17:21:04;30.65;;;11.98;;